createdAt,value
2023-03-05T00:02:23.531Z,4.83
2023-03-05T00:04:50.502Z,5.80
2023-03-05T00:07:17.142Z,6.03
2023-03-05T00:09:48.119Z,5.20
2023-03-05T00:12:16.532Z,4.70
2023-03-05T00:14:43.194Z,6.80
2023-03-05T00:17:10.516Z,5.87
2023-03-05T00:19:37.210Z,7.23
2023-03-05T00:22:04.114Z,5.57
2023-03-05T00:24:30.811Z,7.50
2023-03-05T00:26:57.396Z,6.77
2023-03-05T00:29:24.115Z,6.10
2023-03-05T00:31:51.229Z,6.07
2023-03-05T00:34:19.085Z,5.40
2023-03-05T00:36:47.854Z,4.80
2023-03-05T00:39:16.641Z,4.60
2023-03-05T00:41:43.732Z,5.20
2023-03-05T00:44:10.453Z,4.17
2023-03-05T00:46:38.145Z,5.07
2023-03-05T00:49:05.120Z,7.00
2023-03-05T00:51:32.850Z,3.57
2023-03-05T00:53:59.519Z,4.40
2023-03-05T00:56:27.003Z,4.93
2023-03-05T00:58:54.115Z,4.37
2023-03-05T01:01:20.788Z,4.93
2023-03-05T01:03:47.787Z,4.07
2023-03-05T01:06:15.812Z,4.10
2023-03-05T01:08:43.668Z,4.57
2023-03-05T01:11:11.444Z,5.00
2023-03-05T01:13:38.412Z,3.50
2023-03-05T01:16:05.933Z,2.90
2023-03-05T01:18:33.107Z,3.13
2023-03-05T01:20:59.852Z,4.43
2023-03-05T01:23:26.902Z,3.60
2023-03-05T01:25:55.017Z,4.33
2023-03-05T01:28:21.725Z,2.67
2023-03-05T01:30:48.562Z,4.67
2023-03-05T01:33:15.499Z,2.93
2023-03-05T01:35:42.548Z,3.90
2023-03-05T01:38:09.269Z,3.87
2023-03-05T01:40:36.005Z,3.43
2023-03-05T01:43:23.037Z,2.53
2023-03-05T01:46:23.161Z,2.90
2023-03-05T01:48:54.601Z,3.37
2023-03-05T01:51:25.107Z,2.93
2023-03-05T01:53:52.841Z,3.00
2023-03-05T01:56:20.145Z,2.53
2023-03-05T01:58:47.764Z,2.77
2023-03-05T02:01:16.237Z,3.03
2023-03-05T02:03:43.288Z,2.83
2023-03-05T02:06:10.045Z,2.77
2023-03-05T02:08:36.730Z,2.60
2023-03-05T02:11:04.140Z,2.70
2023-03-05T02:13:33.234Z,2.60
2023-03-05T02:16:01.767Z,3.10
2023-03-05T02:18:28.705Z,2.23
2023-03-05T02:21:01.149Z,2.60
2023-03-05T02:23:32.157Z,3.60
2023-03-05T02:25:59.126Z,2.43
2023-03-05T02:28:30.431Z,2.20
2023-03-05T02:30:57.520Z,2.87
2023-03-05T02:33:24.559Z,3.77
2023-03-05T02:35:51.503Z,2.20
2023-03-05T02:38:20.781Z,2.97
2023-03-05T02:40:47.485Z,3.77
2023-03-05T02:43:14.456Z,2.47
2023-03-05T02:45:41.522Z,2.10
2023-03-05T02:48:08.217Z,2.60
2023-03-05T02:50:35.471Z,4.07
2023-03-05T02:53:02.632Z,2.63
2023-03-05T02:55:29.921Z,2.07
2023-03-05T02:57:56.546Z,1.80
2023-03-05T03:00:23.464Z,2.20
2023-03-05T03:02:50.508Z,2.80
2023-03-05T03:05:17.489Z,2.17
2023-03-05T03:07:45.237Z,3.30
2023-03-05T03:10:12.609Z,2.63
2023-03-05T03:12:41.271Z,2.90
2023-03-05T03:15:09.486Z,2.67
2023-03-05T03:17:36.899Z,2.60
2023-03-05T03:20:04.371Z,2.17
2023-03-05T03:22:31.300Z,2.20
2023-03-05T03:24:58.261Z,3.47
2023-03-05T03:27:24.885Z,3.03
2023-03-05T03:29:52.213Z,2.73
2023-03-05T03:32:18.985Z,2.23
2023-03-05T03:34:47.378Z,3.30
2023-03-05T03:37:14.470Z,3.43
2023-03-05T03:39:41.079Z,2.40
2023-03-05T03:42:07.873Z,2.47
2023-03-05T03:44:34.573Z,2.90
2023-03-05T03:47:01.955Z,2.90
2023-03-05T03:49:29.146Z,2.30
2023-03-05T03:51:57.453Z,2.20
2023-03-05T03:54:24.405Z,3.13
2023-03-05T03:56:51.870Z,2.47
2023-03-05T03:59:18.795Z,2.33
2023-03-05T04:01:45.816Z,2.27
2023-03-05T04:04:13.264Z,2.03
2023-03-05T04:06:40.224Z,2.00
2023-03-05T04:09:07.496Z,2.50
2023-03-05T04:11:34.523Z,2.43
2023-03-05T04:14:01.137Z,1.93
2023-03-05T04:16:28.115Z,2.33
2023-03-05T04:18:54.731Z,2.03
2023-03-05T04:21:22.023Z,3.00
2023-03-05T04:23:48.630Z,2.60
2023-03-05T04:26:15.573Z,3.03
2023-03-05T04:28:42.241Z,2.53
2023-03-05T04:31:09.191Z,2.07
2023-03-05T04:33:36.133Z,2.17
2023-03-05T04:36:02.892Z,3.23
2023-03-05T04:38:30.257Z,2.43
2023-03-05T04:40:56.885Z,2.20
2023-03-05T04:43:23.813Z,2.47
2023-03-05T04:45:50.725Z,2.43
2023-03-05T04:48:18.183Z,3.30
2023-03-05T04:50:45.137Z,2.73
2023-03-05T04:53:12.048Z,2.77
2023-03-05T04:55:39.387Z,1.53
2023-03-05T04:58:06.284Z,2.53
2023-03-05T05:00:33.204Z,2.57
2023-03-05T05:02:59.897Z,3.00
2023-03-05T05:05:29.454Z,3.73
2023-03-05T05:07:57.099Z,2.63
2023-03-05T05:10:24.449Z,2.27
2023-03-05T05:12:51.805Z,2.43
2023-03-05T05:15:18.639Z,3.03
2023-03-05T05:17:45.413Z,2.43
2023-03-05T05:20:13.702Z,3.03
2023-03-05T05:22:40.625Z,2.57
2023-03-05T05:25:08.126Z,3.93
2023-03-05T05:27:35.300Z,2.53
2023-03-05T05:30:03.399Z,2.03
2023-03-05T05:32:30.135Z,2.27
2023-03-05T05:34:57.383Z,2.47
2023-03-05T05:37:24.449Z,2.10
2023-03-05T05:39:51.449Z,3.30
2023-03-05T05:42:18.393Z,1.63
2023-03-05T05:44:46.239Z,2.27
2023-03-05T05:47:13.881Z,2.90
2023-03-05T05:49:40.864Z,2.70
2023-03-05T05:52:07.865Z,2.80
2023-03-05T05:54:34.802Z,2.57
2023-03-05T05:57:01.813Z,2.40
2023-03-05T05:59:28.730Z,2.47
2023-03-05T06:01:55.880Z,3.07
2023-03-05T06:04:23.173Z,2.43
2023-03-05T06:06:50.159Z,3.47
2023-03-05T06:09:16.985Z,2.27
2023-03-05T06:11:43.925Z,2.47
2023-03-05T06:14:11.427Z,3.10
2023-03-05T06:16:38.491Z,2.53
2023-03-05T06:19:05.680Z,3.07
2023-03-05T06:21:33.298Z,2.30
2023-03-05T06:24:00.004Z,3.67
2023-03-05T06:26:26.971Z,1.90
2023-03-05T06:28:54.099Z,2.50
2023-03-05T06:31:22.592Z,2.57
2023-03-05T06:33:49.882Z,2.80
2023-03-05T06:36:18.254Z,3.13
2023-03-05T06:38:46.946Z,2.53
2023-03-05T06:41:16.801Z,2.17
2023-03-05T06:43:44.897Z,2.77
2023-03-05T06:46:13.854Z,3.10
2023-03-05T06:48:40.960Z,2.40
2023-03-05T06:51:13.161Z,2.33
2023-03-05T06:53:40.313Z,1.90
2023-03-05T06:56:07.843Z,1.87
2023-03-05T06:58:34.770Z,2.27
2023-03-05T07:01:01.737Z,2.67
2023-03-05T07:03:28.376Z,2.10
2023-03-05T07:05:55.077Z,2.70
2023-03-05T07:08:21.992Z,2.10
2023-03-05T07:10:48.596Z,2.37
2023-03-05T07:13:15.956Z,2.30
2023-03-05T07:15:42.936Z,2.17
2023-03-05T07:18:09.939Z,2.00
2023-03-05T07:20:37.042Z,2.10
2023-03-05T07:23:04.197Z,1.90
2023-03-05T07:25:31.566Z,1.93
2023-03-05T07:27:58.298Z,3.13
2023-03-05T07:30:25.579Z,2.07
2023-03-05T07:32:52.532Z,2.67
2023-03-05T07:35:19.526Z,2.17
2023-03-05T07:37:46.191Z,1.97
2023-03-05T07:40:13.144Z,1.60
2023-03-05T07:42:39.798Z,2.27
2023-03-05T07:45:07.638Z,2.20
2023-03-05T07:47:35.356Z,2.47
2023-03-05T07:50:02.420Z,2.40
2023-03-05T07:52:29.188Z,1.80
2023-03-05T07:54:55.874Z,2.30
2023-03-05T07:57:22.913Z,1.73
2023-03-05T07:59:49.899Z,1.80
2023-03-05T08:02:18.875Z,1.87
2023-03-05T08:04:46.208Z,2.13
2023-03-05T08:07:14.482Z,2.00
2023-03-05T08:09:42.141Z,1.60
2023-03-05T08:12:09.614Z,2.30
2023-03-05T08:14:36.800Z,3.00
2023-03-05T08:17:04.385Z,2.87
2023-03-05T08:19:31.550Z,2.30
2023-03-05T08:21:59.290Z,2.00
2023-03-05T08:24:28.865Z,2.30
2023-03-05T08:26:56.337Z,1.93
2023-03-05T08:29:23.289Z,3.33
2023-03-05T08:31:52.815Z,1.80
2023-03-05T08:34:19.625Z,2.30
2023-03-05T08:36:46.879Z,2.10
2023-03-05T08:39:14.339Z,2.43
2023-03-05T08:41:41.262Z,1.77
2023-03-05T08:44:08.226Z,1.20
2023-03-05T08:46:34.973Z,1.90
2023-03-05T08:49:01.915Z,1.63
2023-03-05T08:51:28.628Z,2.37
2023-03-05T08:53:57.830Z,2.33
2023-03-05T08:56:26.797Z,2.13
2023-03-05T08:58:53.716Z,1.93
2023-03-05T09:01:20.435Z,1.63
2023-03-05T09:03:47.204Z,2.13
2023-03-05T09:06:13.843Z,2.60
2023-03-05T09:08:40.681Z,1.80
2023-03-05T09:11:09.397Z,2.13
2023-03-05T09:13:36.855Z,1.77
2023-03-05T09:16:05.288Z,2.53
2023-03-05T09:18:32.649Z,1.93
2023-03-05T09:21:03.508Z,1.63
2023-03-05T09:23:30.447Z,2.17
2023-03-05T09:25:57.258Z,1.67
2023-03-05T09:28:24.020Z,2.40
2023-03-05T09:30:51.350Z,2.23
2023-03-05T09:33:18.031Z,2.07
2023-03-05T09:35:44.760Z,2.07
2023-03-05T09:38:11.456Z,2.53
2023-03-05T09:40:45.384Z,2.23
2023-03-05T09:43:22.154Z,1.90
2023-03-05T09:46:01.043Z,2.17
2023-03-05T09:48:44.435Z,1.83
2023-03-05T09:51:16.385Z,1.80
2023-03-05T09:53:47.748Z,2.30
2023-03-05T09:56:17.109Z,1.83
2023-03-05T09:58:46.333Z,2.00
2023-03-05T10:01:17.419Z,2.47
2023-03-05T10:03:57.564Z,1.63
2023-03-05T10:06:26.989Z,1.47
2023-03-05T10:08:56.372Z,1.73
2023-03-05T10:11:39.106Z,1.10
2023-03-05T10:14:13.128Z,1.37
2023-03-05T10:17:12.234Z,1.97
2023-03-05T10:20:03.798Z,1.57
2023-03-05T10:22:34.558Z,1.40
2023-03-05T10:25:17.080Z,1.90
2023-03-05T10:27:48.428Z,2.53
2023-03-05T10:30:30.908Z,2.43
2023-03-05T10:33:09.078Z,1.67
2023-03-05T10:36:04.019Z,1.87
2023-03-05T10:38:50.345Z,2.40
2023-03-05T10:41:25.817Z,1.80
2023-03-05T10:43:58.743Z,1.53
2023-03-05T10:46:32.612Z,1.80
2023-03-05T10:49:07.091Z,2.50
2023-03-05T10:51:40.973Z,2.10
2023-03-05T10:54:16.301Z,1.63
2023-03-05T10:56:42.929Z,2.07
2023-03-05T10:59:09.575Z,2.63
2023-03-05T11:01:36.749Z,1.83
2023-03-05T11:04:04.671Z,1.97
2023-03-05T11:06:35.356Z,1.93
2023-03-05T11:09:23.814Z,1.90
2023-03-05T11:12:21.236Z,1.73
2023-03-05T11:15:05.203Z,2.50
2023-03-05T11:17:34.151Z,1.97
2023-03-05T11:20:30.071Z,2.03
2023-03-05T11:23:06.296Z,3.00
2023-03-05T11:25:34.571Z,2.73
2023-03-05T11:28:03.372Z,2.83
2023-03-05T11:30:32.249Z,2.67
2023-03-05T11:33:10.870Z,2.20
2023-03-05T11:35:39.387Z,1.87
2023-03-05T11:38:17.331Z,2.70
2023-03-05T11:40:44.149Z,2.77
2023-03-05T11:43:16.580Z,2.60
2023-03-05T11:45:45.054Z,2.57
2023-03-05T11:48:18.231Z,2.13
2023-03-05T11:50:48.740Z,2.53
2023-03-05T11:53:21.905Z,2.47
2023-03-05T11:55:52.721Z,2.87
2023-03-05T11:58:32.687Z,2.40
2023-03-05T12:01:00.827Z,2.67
2023-03-05T12:03:33.236Z,2.37
2023-03-05T12:06:06.234Z,3.43
2023-03-05T12:08:37.457Z,2.87
2023-03-05T12:11:09.155Z,2.37
2023-03-05T12:13:42.499Z,2.43
2023-03-05T12:16:17.343Z,2.80
2023-03-05T12:19:02.200Z,2.33
2023-03-05T12:21:36.204Z,2.87
2023-03-05T12:24:32.218Z,3.77
2023-03-05T12:27:13.951Z,2.90
2023-03-05T12:29:46.945Z,2.07
2023-03-05T12:32:53.356Z,2.60
2023-03-05T12:35:26.118Z,2.87
2023-03-05T12:38:28.720Z,3.13
2023-03-05T12:41:34.065Z,2.90
2023-03-05T12:44:20.698Z,2.20
2023-03-05T12:47:22.890Z,1.60
2023-03-05T12:49:50.654Z,2.20
2023-03-05T12:52:27.016Z,2.13
2023-03-05T12:55:15.010Z,1.97
2023-03-05T12:57:44.212Z,2.07
2023-03-05T13:00:20.769Z,2.63
2023-03-05T13:02:51.692Z,2.27
2023-03-05T13:05:23.286Z,1.90
2023-03-05T13:07:50.491Z,2.57
2023-03-05T13:10:24.304Z,3.50
2023-03-05T13:12:54.159Z,2.63
2023-03-05T13:15:24.222Z,2.03
2023-03-05T13:17:56.117Z,2.30
2023-03-05T13:20:29.628Z,2.67
2023-03-05T13:23:19.185Z,1.23
2023-03-05T13:25:57.596Z,2.53
2023-03-05T13:28:25.863Z,2.13
2023-03-05T13:30:54.304Z,2.57
2023-03-05T13:33:26.562Z,2.13
2023-03-05T13:35:54.144Z,2.30
2023-03-05T13:38:24.612Z,2.57
2023-03-05T13:41:06.528Z,2.50
2023-03-05T13:43:34.117Z,2.40
2023-03-05T13:46:01.301Z,2.70
2023-03-05T13:48:28.063Z,2.97
2023-03-05T13:50:56.285Z,2.47
2023-03-05T13:53:24.571Z,2.80
2023-03-05T13:55:53.552Z,2.20
2023-03-05T13:58:51.545Z,2.77
2023-03-05T14:01:26.392Z,2.63
2023-03-05T14:03:55.355Z,2.77
2023-03-05T14:06:24.104Z,2.63
2023-03-05T14:08:52.636Z,2.03
2023-03-05T14:11:20.052Z,2.30
2023-03-05T14:13:48.141Z,2.20
2023-03-05T14:16:24.880Z,2.00
2023-03-05T14:18:54.149Z,2.00
2023-03-05T14:21:21.063Z,1.87
2023-03-05T14:23:50.952Z,2.17
2023-03-05T14:26:27.500Z,1.93
2023-03-05T14:28:57.610Z,1.90
2023-03-05T14:31:26.464Z,1.97
2023-03-05T14:33:54.136Z,2.40
2023-03-05T14:36:24.249Z,1.20
2023-03-05T14:38:52.208Z,2.20
2023-03-05T14:41:21.084Z,1.97
2023-03-05T14:43:47.930Z,2.17
2023-03-05T14:46:14.637Z,2.30
2023-03-05T14:48:41.975Z,2.27
2023-03-05T14:51:11.103Z,1.53
2023-03-05T14:53:42.850Z,1.90
2023-03-05T14:56:18.254Z,2.10
2023-03-05T14:58:44.924Z,1.70
2023-03-05T15:01:12.465Z,2.23
2023-03-05T15:03:40.305Z,2.30
2023-03-05T15:06:13.360Z,2.47
2023-03-05T15:08:40.119Z,3.20
2023-03-05T15:11:07.012Z,2.30
2023-03-05T15:13:34.068Z,3.10
2023-03-05T15:16:00.933Z,2.70
2023-03-05T15:18:27.889Z,2.97
2023-03-05T15:20:56.289Z,2.30
2023-03-05T15:23:24.022Z,2.37
2023-03-05T15:25:50.688Z,2.30
2023-03-05T15:28:17.882Z,4.00
2023-03-05T15:30:46.750Z,2.40
2023-03-05T15:33:16.176Z,2.60
2023-03-05T15:35:43.424Z,1.83
2023-03-05T15:38:10.403Z,2.30
2023-03-05T15:40:37.802Z,2.10
2023-03-05T15:43:04.524Z,2.47
2023-03-05T15:45:31.226Z,2.10
2023-03-05T15:47:58.340Z,1.70
2023-03-05T15:50:25.083Z,1.90
2023-03-05T15:52:52.064Z,2.30
2023-03-05T15:55:19.284Z,1.87
2023-03-05T15:57:49.007Z,1.87
2023-03-05T16:00:18.386Z,2.13
2023-03-05T16:02:45.336Z,1.97
2023-03-05T16:05:12.460Z,2.30
2023-03-05T16:07:42.181Z,2.37
2023-03-05T16:10:11.801Z,1.50
2023-03-05T16:12:42.143Z,2.07
2023-03-05T16:15:13.290Z,2.37
2023-03-05T16:17:43.090Z,2.33
2023-03-05T16:20:12.219Z,2.80
2023-03-05T16:22:39.142Z,1.93
2023-03-05T16:25:06.608Z,2.43
2023-03-05T16:27:34.005Z,2.40
2023-03-05T16:30:00.752Z,2.47
2023-03-05T16:32:28.537Z,2.23
2023-03-05T16:34:55.502Z,2.80
2023-03-05T16:37:23.626Z,2.97
2023-03-05T16:39:50.665Z,3.00
2023-03-05T16:42:17.693Z,3.43
2023-03-05T16:44:45.047Z,3.13
2023-03-05T16:47:11.929Z,2.80
2023-03-05T16:49:39.611Z,3.30
2023-03-05T16:52:18.209Z,3.63
2023-03-05T16:54:45.767Z,3.30
2023-03-05T16:57:12.430Z,3.10
2023-03-05T16:59:39.540Z,3.20
2023-03-05T17:02:06.322Z,2.90
2023-03-05T17:04:33.582Z,2.10
2023-03-05T17:07:02.778Z,3.47
2023-03-05T17:09:30.229Z,2.70
2023-03-05T17:11:56.989Z,2.47
2023-03-05T17:14:23.825Z,2.73
2023-03-05T17:16:50.771Z,7.53
2023-03-05T17:19:17.875Z,3.90
2023-03-05T17:21:44.755Z,2.87
2023-03-05T17:24:12.171Z,2.33
2023-03-05T17:26:39.079Z,3.33
2023-03-05T17:29:06.334Z,2.80
2023-03-05T17:31:33.434Z,2.43
2023-03-05T17:34:00.190Z,2.60
2023-03-05T17:36:27.223Z,3.17
2023-03-05T17:38:54.287Z,3.50
2023-03-05T17:41:21.728Z,3.17
2023-03-05T17:43:48.510Z,3.17
2023-03-05T17:46:16.035Z,3.50
2023-03-05T17:48:43.211Z,2.50
2023-03-05T17:51:12.891Z,2.53
2023-03-05T17:53:40.134Z,3.03
2023-03-05T17:56:08.189Z,2.93
2023-03-05T17:58:36.060Z,2.50
2023-03-05T18:01:03.661Z,2.93
2023-03-05T18:03:30.359Z,2.57
2023-03-05T18:05:57.343Z,3.03
2023-03-05T18:08:24.297Z,2.73
2023-03-05T18:10:51.091Z,2.60
2023-03-05T18:13:17.754Z,3.07
2023-03-05T18:15:46.875Z,2.63
2023-03-05T18:18:13.828Z,3.03
2023-03-05T18:20:41.383Z,3.13
2023-03-05T18:23:08.075Z,3.33
2023-03-05T18:25:34.860Z,3.60
2023-03-05T18:28:03.678Z,2.77
2023-03-05T18:30:30.920Z,3.23
2023-03-05T18:32:58.804Z,3.43
2023-03-05T18:35:26.345Z,3.40
2023-03-05T18:37:53.094Z,3.23
2023-03-05T18:40:22.282Z,4.37
2023-03-05T18:42:49.776Z,4.40
2023-03-05T18:45:18.805Z,2.60
2023-03-05T18:47:46.357Z,2.97
2023-03-05T18:50:16.180Z,2.83
2023-03-05T18:52:43.382Z,4.10
2023-03-05T18:55:14.325Z,3.57
2023-03-05T18:57:41.270Z,3.60
2023-03-05T19:00:10.534Z,2.37
2023-03-05T19:02:37.219Z,3.00
2023-03-05T19:05:05.054Z,3.50
2023-03-05T19:07:34.349Z,3.90
2023-03-05T19:10:06.685Z,3.90
2023-03-05T19:12:37.667Z,4.00
2023-03-05T19:15:06.076Z,2.67
2023-03-05T19:17:33.122Z,2.70
2023-03-05T19:19:59.931Z,3.23
2023-03-05T19:22:28.758Z,3.37
2023-03-05T19:25:02.530Z,3.83
2023-03-05T19:27:29.591Z,2.47
2023-03-05T19:29:57.384Z,2.53
2023-03-05T19:32:24.480Z,3.20
2023-03-05T19:34:55.625Z,2.93
2023-03-05T19:37:22.546Z,2.83
2023-03-05T19:39:49.484Z,3.30
2023-03-05T19:42:17.313Z,3.63
2023-03-05T19:44:44.354Z,4.07
2023-03-05T19:47:11.173Z,3.97
2023-03-05T19:49:37.816Z,3.97
2023-03-05T19:52:05.572Z,4.17
2023-03-05T19:54:32.741Z,3.53
2023-03-05T19:56:59.673Z,4.03
2023-03-05T19:59:27.063Z,3.77
2023-03-05T20:01:56.593Z,3.40
2023-03-05T20:04:23.973Z,3.17
2023-03-05T20:06:51.067Z,4.57
2023-03-05T20:09:17.973Z,4.30
2023-03-05T20:11:45.218Z,3.97
2023-03-05T20:14:13.939Z,3.97
2023-03-05T20:16:42.410Z,4.10
2023-03-05T20:19:10.914Z,4.40
2023-03-05T20:21:40.023Z,4.80
2023-03-05T20:24:10.191Z,3.63
2023-03-05T20:26:38.975Z,5.03
2023-03-05T20:29:06.158Z,4.63
2023-03-05T20:31:36.075Z,3.30
2023-03-05T20:34:04.588Z,3.67
2023-03-05T20:36:31.288Z,3.50
2023-03-05T20:38:58.026Z,3.47
2023-03-05T20:41:24.768Z,3.73
2023-03-05T20:43:51.955Z,2.33
2023-03-05T20:46:21.675Z,3.30
2023-03-05T20:48:49.702Z,4.27
2023-03-05T20:51:18.757Z,3.83
2023-03-05T20:53:45.945Z,3.90
2023-03-05T20:56:12.622Z,4.00
2023-03-05T20:58:39.743Z,4.70
2023-03-05T21:01:06.914Z,3.90
2023-03-05T21:03:33.911Z,3.60
2023-03-05T21:06:02.167Z,4.13
2023-03-05T21:08:29.483Z,4.00
2023-03-05T21:10:56.159Z,4.27
2023-03-05T21:13:24.437Z,4.10
2023-03-05T21:15:51.554Z,4.10
2023-03-05T21:18:18.328Z,4.70
2023-03-05T21:20:45.171Z,4.33
2023-03-05T21:23:11.859Z,3.87
2023-03-05T21:25:39.310Z,4.47
2023-03-05T21:28:07.783Z,4.03
2023-03-05T21:30:36.640Z,4.50
2023-03-05T21:33:05.323Z,4.10
2023-03-05T21:35:32.208Z,4.00
2023-03-05T21:37:59.256Z,3.40
2023-03-05T21:40:26.280Z,4.77
2023-03-05T21:42:54.255Z,3.50
2023-03-05T21:45:24.330Z,3.40
2023-03-05T21:47:52.088Z,3.73
2023-03-05T21:50:19.924Z,3.97
2023-03-05T21:52:47.109Z,4.53
2023-03-05T21:55:15.295Z,4.50
2023-03-05T21:57:42.147Z,4.83
2023-03-05T22:00:12.165Z,4.93
2023-03-05T22:02:39.660Z,4.90
2023-03-05T22:05:11.523Z,5.27
2023-03-05T22:07:38.254Z,5.50
2023-03-05T22:10:05.677Z,5.67
2023-03-05T22:12:43.058Z,5.60
2023-03-05T22:15:11.377Z,5.77
2023-03-05T22:17:38.534Z,6.37
2023-03-05T22:20:07.506Z,6.17
2023-03-05T22:22:35.728Z,7.90
2023-03-05T22:25:03.246Z,6.30
2023-03-05T22:27:30.264Z,6.73
2023-03-05T22:29:56.885Z,8.20
2023-03-05T22:32:24.222Z,8.10
2023-03-05T22:34:54.951Z,8.40
2023-03-05T22:37:22.091Z,9.60
2023-03-05T22:39:52.645Z,8.60
2023-03-05T22:42:19.614Z,9.90
2023-03-05T22:44:46.786Z,9.50
2023-03-05T22:47:13.871Z,8.33
2023-03-05T22:49:41.442Z,8.40
2023-03-05T22:52:08.402Z,8.57
2023-03-05T22:54:35.035Z,8.47
2023-03-05T22:57:01.968Z,8.87
2023-03-05T22:59:29.090Z,8.90
2023-03-05T23:01:55.760Z,9.37
2023-03-05T23:04:39.371Z,8.97
2023-03-05T23:07:07.013Z,9.57
2023-03-05T23:09:33.917Z,8.47
2023-03-05T23:12:00.635Z,7.93
2023-03-05T23:14:27.550Z,8.57
2023-03-05T23:16:54.280Z,8.17
2023-03-05T23:19:21.027Z,6.90
2023-03-05T23:21:47.889Z,7.40
2023-03-05T23:24:15.205Z,7.50
2023-03-05T23:26:42.045Z,8.13
2023-03-05T23:29:08.811Z,8.23
2023-03-05T23:31:36.204Z,8.07
2023-03-05T23:34:02.893Z,8.33
2023-03-05T23:36:30.127Z,9.10
2023-03-05T23:38:57.384Z,8.07
2023-03-05T23:41:24.737Z,7.30
2023-03-05T23:43:51.720Z,7.70
2023-03-05T23:46:18.811Z,7.73
2023-03-05T23:48:46.498Z,7.40
2023-03-05T23:51:13.431Z,8.30
2023-03-05T23:53:40.351Z,7.70
2023-03-05T23:56:11.872Z,7.73
2023-03-05T23:58:39.920Z,8.33
